KPXE

Perry-Houston County Airport

Perry, Georgia, USA
METAR KPXE 252215Z AUTO 19003KT 10SM TS SCT020 SCT026 BKN120 22/21 A2997 RMK AO2 LTG DSNT ALQDS T02220208
Observed Flight Rules
May-25 @ 22:15 UTC (11 minutes ago) Visual Flight Rules
Wind Visibility Clouds Conditions
190° at 3 knots 10 miles
  • Scattered at 2,000' AGL
  • Scattered at 2,600' AGL
  • Broken at 12,000' AGL
  • Thunderstorm
Temperatures Readings
Current 22°C / 72°F
Dewpoint 21°C / 70°F
Humidity 94%
Altimeter 29.97" Hg
Pressure 1015 hPa
Elevation 127
METAR KPXE 252215Z AUTO 19003KT 10SM TS SCT020 SCT026 BKN120 22/21 A2997 RMK AO2 LTG DSNT ALQDS T02220208
Observed Flight Rules
May-25 @ 22:15 UTC
(11 minutes ago)
VFR
Wind Visibility
190° at 3 knots 10 miles
Clouds
  • Scattered at 2,000' AGL
  • Scattered at 2,600' AGL
  • Broken at 12,000' AGL
Conditions
  • Thunderstorm
Temperature Dewpoint
22°C / 72°F 21°C / 70°F
Humidity Altimeter Pressure
94% 29.97" Hg 1015 hPa